Time;durP1;ratioP1;P1;durP2;ratioP2;P2;SDS_P1;SDS_P2;PMS_P1;PMS_P2;Temp;Humidity;BMP_temperature;BMP_pressure;BME280_temperature;BME280_humidity;BME280_pressure;Samples;Min_cycle;Max_cycle;Signal;HPM_P1;HPM_P2
2021/05/26 00:02:20;;;;;;;6.90;4.30;;;10.70;91.60;;;;;;5095101;28;20237;-39
2021/05/26 00:04:47;;;;;;;5.30;3.35;;;10.80;91.60;;;;;;5094960;28;20331;-38
2021/05/26 00:07:15;;;;;;;2.78;1.75;;;10.80;91.60;;;;;;5096878;28;20218;-42
2021/05/26 00:09:43;;;;;;;3.72;2.45;;;10.80;91.60;;;;;;5095789;28;20242;-39
2021/05/26 00:12:12;;;;;;;8.23;4.90;;;10.90;91.60;;;;;;5095044;28;20202;-39
2021/05/26 00:14:40;;;;;;;1.52;1.42;;;10.90;91.60;;;;;;5094642;28;20693;-40
2021/05/26 00:17:07;;;;;;;2.67;1.60;;;10.90;91.70;;;;;;5094883;28;20206;-39
2021/05/26 00:19:37;;;;;;;2.17;1.50;;;10.80;91.80;;;;;;5094514;28;20637;-39
2021/05/26 00:22:04;;;;;;;4.13;3.75;;;10.80;91.90;;;;;;5094429;28;20707;-40
2021/05/26 00:24:32;;;;;;;3.95;3.47;;;10.80;92.00;;;;;;5095241;28;20253;-38
2021/05/26 00:27:00;;;;;;;11.25;10.13;;;10.80;92.00;;;;;;5094673;28;20703;-37
2021/05/26 00:29:28;;;;;;;4.80;2.55;;;10.90;92.10;;;;;;5094362;28;20213;-39
2021/05/26 00:31:55;;;;;;;2.08;1.88;;;10.90;92.20;;;;;;5094345;28;20271;-38
2021/05/26 00:34:22;;;;;;;1.98;1.70;;;10.90;92.30;;;;;;5094233;28;20242;-39
2021/05/26 00:36:50;;;;;;;4.40;1.67;;;10.90;92.50;;;;;;5094125;28;20249;-38
2021/05/26 00:39:17;;;;;;;3.20;1.23;;;10.80;92.60;;;;;;5094754;28;20294;-38
2021/05/26 00:41:45;;;;;;;3.97;1.52;;;10.80;92.90;;;;;;5094557;28;20321;-38
2021/05/26 00:44:15;;;;;;;3.33;1.77;;;10.70;93.00;;;;;;5094328;28;20257;-38
2021/05/26 00:46:44;;;;;;;2.00;1.52;;;10.70;93.30;;;;;;5094720;28;20210;-39
2021/05/26 00:49:12;;;;;;;2.47;1.70;;;10.60;93.30;;;;;;5094211;28;20242;-38
2021/05/26 00:51:39;;;;;;;4.30;1.50;;;10.70;95.10;;;;;;5094367;28;20238;-37
2021/05/26 00:54:07;;;;;;;1.90;1.40;;;10.50;96.00;;;;;;5093256;28;20253;-39
2021/05/26 00:56:36;;;;;;;3.05;1.58;;;10.60;94.20;;;;;;5094275;28;20202;-39
2021/05/26 00:59:04;;;;;;;1.75;1.27;;;10.50;94.00;;;;;;5094153;28;20601;-38
2021/05/26 01:01:33;;;;;;;2.28;1.50;;;10.50;94.10;;;;;;5094084;28;20248;-38
2021/05/26 01:04:01;;;;;;;2.95;1.38;;;10.40;94.30;;;;;;5093762;28;20203;-38
2021/05/26 01:06:28;;;;;;;3.42;1.65;;;10.40;94.40;;;;;;5094130;28;20207;-37
2021/05/26 01:08:56;;;;;;;2.20;1.40;;;10.40;97.70;;;;;;5094129;28;20634;-37
2021/05/26 01:11:23;;;;;;;4.15;1.60;;;10.40;95.60;;;;;;5093856;28;20692;-38
2021/05/26 01:13:51;;;;;;;3.05;1.35;;;10.40;94.60;;;;;;5093890;28;20215;-38
2021/05/26 01:16:18;;;;;;;2.83;1.45;;;10.40;94.50;;;;;;5093803;28;20260;-37
2021/05/26 01:18:47;;;;;;;5.13;1.50;;;10.40;94.50;;;;;;5093478;28;20238;-38
2021/05/26 01:21:16;;;;;;;2.97;1.60;;;10.40;94.50;;;;;;5093820;28;20317;-37
2021/05/26 01:23:45;;;;;;;2.55;1.20;;;10.40;94.60;;;;;;5093580;28;20893;-38
2021/05/26 01:26:13;;;;;;;1.63;1.02;;;10.40;94.60;;;;;;5093322;28;20546;-37
2021/05/26 01:28:40;;;;;;;3.17;1.95;;;10.40;94.60;;;;;;5093581;28;20211;-37
2021/05/26 01:31:08;;;;;;;2.05;1.70;;;10.40;94.70;;;;;;5093381;28;20215;-37
2021/05/26 01:33:35;;;;;;;1.83;1.20;;;10.40;94.80;;;;;;5093589;28;20207;-37
2021/05/26 01:36:03;;;;;;;2.95;1.23;;;10.40;94.90;;;;;;5093607;28;20581;-37
2021/05/26 01:38:31;;;;;;;1.73;1.25;;;10.40;94.90;;;;;;5093410;28;20294;-37
2021/05/26 01:41:03;;;;;;;2.67;1.45;;;10.40;95.00;;;;;;5093157;28;20222;-37
2021/05/26 01:43:32;;;;;;;2.35;1.48;;;10.40;94.90;;;;;;5093354;28;20285;-37
2021/05/26 01:46:01;;;;;;;1.30;1.20;;;10.40;94.90;;;;;;5093185;28;20381;-37
2021/05/26 01:48:32;;;;;;;3.22;1.38;;;10.40;94.90;;;;;;5093334;28;20301;-37
2021/05/26 01:51:00;;;;;;;2.90;1.60;;;10.50;94.80;;;;;;5093228;28;20632;-37
2021/05/26 01:53:29;;;;;;;3.60;1.33;;;10.50;94.80;;;;;;5093052;28;20238;-37
2021/05/26 01:55:56;;;;;;;2.25;1.50;;;10.60;94.90;;;;;;5092864;28;20250;-37
2021/05/26 01:58:25;;;;;;;1.60;1.30;;;10.60;94.90;;;;;;5092982;28;20665;-37
2021/05/26 02:00:52;;;;;;;1.83;1.15;;;10.60;95.10;;;;;;5093002;28;20236;-38
2021/05/26 02:03:19;;;;;;;1.23;1.13;;;10.50;95.20;;;;;;5092893;28;20238;-37
2021/05/26 02:05:47;;;;;;;1.52;1.30;;;10.60;95.20;;;;;;5092687;28;20206;-37
2021/05/26 02:08:15;;;;;;;2.22;1.27;;;10.50;95.30;;;;;;5092797;28;20207;-40
2021/05/26 02:13:28;;;;;;;1.42;1.27;;;10.50;95.50;;;;;;5052229;28;20259;-39
2021/05/26 02:15:55;;;;;;;1.42;1.20;;;10.50;95.50;;;;;;5092768;28;20213;-39
2021/05/26 02:18:23;;;;;;;2.22;1.20;;;10.50;95.50;;;;;;5092728;28;20632;-39
2021/05/26 02:20:50;;;;;;;1.60;1.50;;;10.50;95.50;;;;;;5092696;28;20253;-39
2021/05/26 02:23:18;;;;;;;2.92;1.52;;;10.50;95.50;;;;;;5092510;28;20665;-38
2021/05/26 02:25:45;;;;;;;3.85;1.52;;;10.50;95.50;;;;;;5092691;28;20207;-39
2021/05/26 02:28:12;;;;;;;1.83;1.38;;;10.60;95.50;;;;;;5092648;28;20217;-39
2021/05/26 02:30:41;;;;;;;3.08;1.23;;;10.50;95.50;;;;;;5092416;28;20210;-40
2021/05/26 02:33:08;;;;;;;1.38;1.20;;;10.50;95.50;;;;;;5092606;28;20234;-39
2021/05/26 02:35:36;;;;;;;1.67;1.15;;;10.50;95.50;;;;;;5092377;28;20331;-39
2021/05/26 02:38:04;;;;;;;1.10;1.00;;;10.50;95.50;;;;;;5092502;28;20289;-39
2021/05/26 02:40:33;;;;;;;1.45;1.25;;;10.50;95.50;;;;;;5092333;28;20752;-36
2021/05/26 02:43:00;;;;;;;1.80;1.10;;;10.50;95.80;;;;;;5092335;28;20269;-39
2021/05/26 02:45:28;;;;;;;2.55;1.50;;;10.50;95.60;;;;;;5092293;28;20730;-39
2021/05/26 02:47:56;;;;;;;1.95;1.13;;;10.40;95.60;;;;;;5092267;28;20291;-38
2021/05/26 02:50:24;;;;;;;2.50;1.38;;;10.40;95.60;;;;;;5092137;28;20206;-39
2021/05/26 02:52:52;;;;;;;2.67;1.17;;;10.40;95.50;;;;;;5092304;28;20334;-39
2021/05/26 02:55:20;;;;;;;1.80;1.27;;;10.40;95.50;;;;;;5092261;28;20305;-39
2021/05/26 02:57:48;;;;;;;2.72;1.13;;;10.40;95.50;;;;;;5092176;28;20508;-39
2021/05/26 03:00:20;;;;;;;1.20;1.10;;;10.30;95.50;;;;;;5092119;28;20238;-40
2021/05/26 03:02:48;;;;;;;2.67;1.00;;;10.40;95.60;;;;;;5091960;28;20305;-39
2021/05/26 03:05:18;;;;;;;1.55;1.27;;;10.30;95.60;;;;;;5092156;28;20242;-39
2021/05/26 03:07:46;;;;;;;3.20;1.30;;;10.30;95.60;;;;;;5092080;28;20314;-39
2021/05/26 03:10:16;;;;;;;3.60;1.45;;;10.30;95.70;;;;;;5092073;28;20257;-42
2021/05/26 03:12:44;;;;;;;3.45;1.10;;;10.30;95.70;;;;;;5091915;28;20294;-39
2021/05/26 03:15:14;;;;;;;4.45;1.20;;;10.30;95.70;;;;;;5091877;28;20263;-39
2021/05/26 03:17:42;;;;;;;1.00;0.90;;;10.30;95.70;;;;;;5093230;28;20260;-39
2021/05/26 03:20:13;;;;;;;1.65;1.30;;;10.30;95.60;;;;;;5095847;28;20600;-39
2021/05/26 03:22:42;;;;;;;2.15;1.02;;;10.30;95.70;;;;;;5096088;28;20227;-42
2021/05/26 03:25:12;;;;;;;2.10;0.95;;;10.30;95.70;;;;;;5096027;28;20206;-40
2021/05/26 03:27:40;;;;;;;1.42;1.15;;;10.30;95.70;;;;;;5095822;28;20203;-39
2021/05/26 03:30:10;;;;;;;3.90;1.50;;;10.30;95.80;;;;;;5096190;28;20207;-39
2021/05/26 03:32:39;;;;;;;2.67;1.20;;;10.30;95.80;;;;;;5096325;28;20198;-39
2021/05/26 03:35:08;;;;;;;2.67;1.48;;;10.30;95.90;;;;;;5095877;28;20202;-39
2021/05/26 03:37:35;;;;;;;2.95;1.55;;;10.20;96.00;;;;;;5095841;28;20245;-39
2021/05/26 03:40:05;;;;;;;1.73;1.63;;;10.20;96.30;;;;;;5095624;28;20673;-39
2021/05/26 03:42:33;;;;;;;4.10;1.65;;;10.20;96.10;;;;;;5095781;28;20226;-39
2021/05/26 03:45:01;;;;;;;1.92;1.38;;;10.20;96.10;;;;;;5095796;28;20300;-39
2021/05/26 03:47:28;;;;;;;3.25;1.60;;;10.20;96.10;;;;;;5095833;28;20238;-39
2021/05/26 03:49:56;;;;;;;5.72;1.90;;;10.30;96.10;;;;;;5095502;28;20301;-42
2021/05/26 03:52:23;;;;;;;5.05;1.40;;;10.30;96.30;;;;;;5095439;28;20774;-41
2021/05/26 03:54:51;;;;;;;4.40;2.40;;;10.40;95.90;;;;;;5095294;28;20253;-41
2021/05/26 03:57:20;;;;;;;5.75;2.30;;;10.40;95.80;;;;;;5095281;28;20747;-41
2021/05/26 03:59:47;;;;;;;3.35;1.30;;;10.50;95.80;;;;;;5095397;28;20202;-41
2021/05/26 04:02:15;;;;;;;3.40;1.98;;;10.50;95.70;;;;;;5094822;28;20233;-39
2021/05/26 04:04:42;;;;;;;3.35;1.77;;;10.60;95.60;;;;;;5095025;28;20293;-39
2021/05/26 04:07:10;;;;;;;1.75;1.38;;;10.60;95.60;;;;;;5094835;28;20402;-39
2021/05/26 04:09:37;;;;;;;5.03;2.35;;;10.60;95.60;;;;;;5095214;28;20291;-40
2021/05/26 04:12:05;;;;;;;2.63;1.33;;;10.60;95.60;;;;;;5095211;28;20202;-40
2021/05/26 04:14:33;;;;;;;2.72;1.38;;;10.70;95.60;;;;;;5095077;28;20207;-40
2021/05/26 04:17:01;;;;;;;1.33;1.23;;;10.70;95.50;;;;;;5094827;28;20237;-40
2021/05/26 04:19:28;;;;;;;4.07;1.33;;;10.80;95.40;;;;;;5094314;28;20325;-40
2021/05/26 04:21:56;;;;;;;4.72;2.50;;;10.90;95.30;;;;;;5094464;28;20371;-40
2021/05/26 04:24:23;;;;;;;2.42;1.58;;;11.00;95.20;;;;;;5094795;28;20202;-40
2021/05/26 04:26:50;;;;;;;3.22;1.27;;;11.10;95.20;;;;;;5094938;28;20230;-40
2021/05/26 04:29:19;;;;;;;2.10;1.45;;;11.20;95.00;;;;;;5094732;28;20203;-40
2021/05/26 04:31:47;;;;;;;2.17;1.35;;;;;;;;;;5094724;28;20293;-40
2021/05/26 04:34:15;;;;;;;3.33;1.50;;;11.30;94.50;;;;;;5094520;28;20728;-40
2021/05/26 04:36:43;;;;;;;2.28;1.50;;;11.30;94.70;;;;;;5094850;28;20207;-40
2021/05/26 04:39:11;;;;;;;2.88;1.75;;;11.40;94.60;;;;;;5094561;28;20271;-40
2021/05/26 04:41:38;;;;;;;4.18;1.40;;;11.40;94.60;;;;;;5094601;28;20297;-40
2021/05/26 04:44:06;;;;;;;4.85;1.60;;;11.40;94.60;;;;;;5094428;28;20287;-41
2021/05/26 04:46:35;;;;;;;5.13;1.70;;;11.40;94.60;;;;;;5094189;28;20665;-40
2021/05/26 04:49:04;;;;;;;3.85;1.67;;;11.40;94.60;;;;;;5094236;28;20214;-40
2021/05/26 04:51:31;;;;;;;2.03;1.80;;;11.40;94.60;;;;;;5094376;28;20295;-39
2021/05/26 04:53:59;;;;;;;2.88;1.50;;;11.40;94.60;;;;;;5094282;28;20298;-39
2021/05/26 04:56:26;;;;;;;5.72;2.25;;;11.40;94.60;;;;;;5094369;28;20309;-39
2021/05/26 04:58:53;;;;;;;1.73;1.40;;;11.40;94.60;;;;;;5094159;28;20699;-40
2021/05/26 05:01:21;;;;;;;2.28;1.25;;;11.40;94.50;;;;;;5094037;28;20206;-40
2021/05/26 05:03:49;;;;;;;5.95;2.25;;;11.40;94.60;;;;;;5094255;28;20254;-39
2021/05/26 05:06:17;;;;;;;4.32;3.00;;;11.40;94.50;;;;;;5094283;28;20207;-39
2021/05/26 05:08:45;;;;;;;2.47;1.75;;;11.40;94.60;;;;;;5094260;28;20294;-39
2021/05/26 05:11:12;;;;;;;3.95;1.80;;;11.40;94.50;;;;;;5094049;28;20305;-40
2021/05/26 05:13:40;;;;;;;5.28;2.10;;;11.50;94.50;;;;;;5093970;28;20211;-41
2021/05/26 05:16:07;;;;;;;5.80;2.67;;;11.60;94.60;;;;;;5093790;28;20213;-40
2021/05/26 05:18:35;;;;;;;3.88;2.33;;;11.70;94.50;;;;;;5093971;28;20346;-40
2021/05/26 05:21:02;;;;;;;5.32;2.40;;;11.70;94.50;;;;;;5093896;28;20681;-40
2021/05/26 05:23:30;;;;;;;4.18;1.85;;;11.80;94.50;;;;;;5093961;28;20230;-40
2021/05/26 05:25:58;;;;;;;8.95;2.30;;;11.90;94.40;;;;;;5093987;28;20240;-39
2021/05/26 05:28:25;;;;;;;4.07;2.08;;;11.90;94.30;;;;;;5093767;28;20202;-42
2021/05/26 05:30:52;;;;;;;3.85;1.80;;;11.90;94.30;;;;;;5093662;28;20254;-40
2021/05/26 05:33:20;;;;;;;5.20;2.30;;;11.90;94.30;;;;;;5093716;28;20217;-39
2021/05/26 05:35:48;;;;;;;4.70;1.70;;;11.90;94.50;;;;;;5093761;28;20298;-39
2021/05/26 05:38:18;;;;;;;4.85;2.40;;;11.90;94.60;;;;;;5093464;28;20203;-40
2021/05/26 05:40:48;;;;;;;5.20;2.13;;;11.80;94.60;;;;;;5092863;28;20748;-40
2021/05/26 05:43:15;;;;;;;3.33;2.33;;;11.90;94.70;;;;;;5093342;28;20276;-40
2021/05/26 05:45:43;;;;;;;2.85;1.83;;;11.90;94.80;;;;;;5093785;28;20245;-39
2021/05/26 05:48:11;;;;;;;4.75;1.80;;;11.90;94.80;;;;;;5093526;28;20585;-39
2021/05/26 05:50:38;;;;;;;5.00;2.00;;;12.00;94.90;;;;;;5093453;28;20211;-39
2021/05/26 05:53:06;;;;;;;3.03;1.30;;;12.10;94.80;;;;;;5093175;28;20245;-39
2021/05/26 05:55:33;;;;;;;7.78;2.95;;;12.10;94.90;;;;;;5093129;28;20242;-42
2021/05/26 05:58:03;;;;;;;5.38;2.08;;;12.10;94.80;;;;;;5093090;28;20214;-39
2021/05/26 06:00:32;;;;;;;4.22;1.95;;;12.00;95.30;;;;;;5093181;28;20237;-39
2021/05/26 06:03:00;;;;;;;5.82;2.28;;;12.00;95.20;;;;;;5093144;28;20222;-41
2021/05/26 06:05:31;;;;;;;4.20;1.55;;;12.00;95.50;;;;;;5093225;28;20637;-39
2021/05/26 06:07:58;;;;;;;4.30;1.92;;;12.00;95.70;;;;;;5092834;28;20202;-39
2021/05/26 06:10:26;;;;;;;4.28;2.00;;;12.10;95.80;;;;;;5092686;28;20220;-40
2021/05/26 06:12:56;;;;;;;4.05;1.77;;;12.10;95.90;;;;;;5092419;28;20317;-39
2021/05/26 06:15:24;;;;;;;4.72;2.00;;;12.10;96.10;;;;;;5092077;28;20214;-40
2021/05/26 06:17:52;;;;;;;10.32;2.97;;;12.10;96.10;;;;;;5092348;28;20253;-40
2021/05/26 06:20:19;;;;;;;4.18;1.80;;;12.10;96.10;;;;;;5092170;28;20242;-40
2021/05/26 06:22:46;;;;;;;6.57;2.25;;;12.20;96.20;;;;;;5092265;28;20258;-41
2021/05/26 06:25:14;;;;;;;3.50;2.10;;;12.30;96.30;;;;;;5092512;28;20203;-40
2021/05/26 06:27:42;;;;;;;3.10;1.90;;;12.30;96.40;;;;;;5092296;28;20203;-40
2021/05/26 06:30:11;;;;;;;3.58;2.00;;;12.30;96.60;;;;;;5092263;28;20636;-40
2021/05/26 06:32:39;;;;;;;2.63;2.17;;;12.50;96.80;;;;;;5092355;28;20230;-40
2021/05/26 06:35:09;;;;;;;2.58;1.90;;;12.70;96.70;;;;;;5092446;28;20238;-40
2021/05/26 06:37:37;;;;;;;2.58;1.60;;;13.00;96.70;;;;;;5092071;28;20298;-40
2021/05/26 06:40:06;;;;;;;4.80;2.15;;;13.20;96.60;;;;;;5092269;28;20284;-40
2021/05/26 06:42:33;;;;;;;5.00;2.30;;;13.30;96.40;;;;;;5092243;28;20321;-40
2021/05/26 06:45:01;;;;;;;3.20;1.60;;;13.30;96.50;;;;;;5092097;28;20280;-40
2021/05/26 06:47:29;;;;;;;2.45;1.58;;;13.20;96.40;;;;;;5092026;28;20314;-40
2021/05/26 06:49:57;;;;;;;3.95;2.22;;;13.30;96.70;;;;;;5092177;28;20210;-40
2021/05/26 06:52:25;;;;;;;3.75;1.83;;;13.40;97.00;;;;;;5091095;28;20207;-39
2021/05/26 06:54:52;;;;;;;5.13;2.30;;;13.40;96.80;;;;;;5091951;28;20207;-39
2021/05/26 06:57:19;;;;;;;3.90;1.70;;;13.50;96.60;;;;;;5091848;28;20206;-39
2021/05/26 06:59:47;;;;;;;2.85;1.90;;;13.60;96.50;;;;;;5091823;28;20286;-42
2021/05/26 07:02:14;;;;;;;7.27;3.00;;;13.70;96.20;;;;;;5091488;28;20253;-40
2021/05/26 07:04:42;;;;;;;4.40;2.40;;;13.80;96.10;;;;;;5091877;28;20633;-39
2021/05/26 07:07:12;;;;;;;2.78;1.40;;;13.90;96.00;;;;;;5091551;28;20293;-39
2021/05/26 07:09:40;;;;;;;2.30;1.63;;;13.90;95.60;;;;;;5091533;28;20210;-39
2021/05/26 07:12:08;;;;;;;3.85;2.00;;;13.80;95.60;;;;;;5091642;28;20211;-39
2021/05/26 07:14:37;;;;;;;3.83;2.13;;;13.90;95.60;;;;;;5091487;28;20241;-39
2021/05/26 07:17:05;;;;;;;2.80;1.88;;;13.90;95.50;;;;;;5091822;28;20241;-40
2021/05/26 07:19:32;;;;;;;2.80;1.92;;;14.10;95.20;;;;;;5091239;28;20238;-39
2021/05/26 07:22:00;;;;;;;2.10;1.50;;;14.20;94.90;;;;;;5091645;28;20649;-38
2021/05/26 07:24:28;;;;;;;1.40;1.20;;;14.20;94.70;;;;;;5091728;28;20325;-41
2021/05/26 07:26:55;;;;;;;4.85;2.58;;;14.30;94.60;;;;;;5091585;28;20681;-38
2021/05/26 07:29:23;;;;;;;4.10;1.75;;;14.40;94.40;;;;;;5091428;28;20548;-40
2021/05/26 07:31:50;;;;;;;2.85;1.60;;;14.40;94.10;;;;;;5091611;28;20238;-42
2021/05/26 07:34:18;;;;;;;8.93;6.40;;;14.50;94.10;;;;;;5091394;28;20661;-41
2021/05/26 07:36:45;;;;;;;6.68;3.63;;;14.50;94.00;;;;;;5091610;28;20257;-43
2021/05/26 07:39:13;;;;;;;4.80;2.63;;;14.60;94.00;;;;;;5091364;28;20293;-41
2021/05/26 07:41:41;;;;;;;4.22;1.63;;;14.70;93.80;;;;;;5091136;28;20691;-41
2021/05/26 07:44:09;;;;;;;3.65;1.42;;;14.80;93.70;;;;;;5091210;28;20313;-40
2021/05/26 07:46:36;;;;;;;10.45;5.82;;;14.90;93.40;;;;;;5091612;28;20301;-41
2021/05/26 07:49:05;;;;;;;3.92;1.90;;;14.90;93.20;;;;;;5091329;28;20297;-40
2021/05/26 07:51:33;;;;;;;4.75;2.58;;;15.00;93.20;;;;;;5091098;28;20621;-42
2021/05/26 07:54:01;;;;;;;5.28;2.17;;;15.10;93.20;;;;;;5091201;28;20665;-40
2021/05/26 07:56:28;;;;;;;2.85;1.58;;;15.20;92.90;;;;;;5091044;28;20234;-39
2021/05/26 07:58:57;;;;;;;4.20;1.88;;;15.30;92.70;;;;;;5091375;28;20301;-40
2021/05/26 08:01:24;;;;;;;11.93;7.50;;;15.30;92.50;;;;;;5091370;28;20302;-41
2021/05/26 08:03:52;;;;;;;3.95;1.48;;;15.30;92.60;;;;;;5092397;28;20325;-39
2021/05/26 08:06:19;;;;;;;4.25;2.20;;;15.30;92.50;;;;;;5094804;28;20259;-39
2021/05/26 08:08:47;;;;;;;4.43;2.40;;;15.30;92.40;;;;;;5094767;28;20231;-40
2021/05/26 08:11:15;;;;;;;4.45;2.42;;;15.40;92.50;;;;;;5094737;28;20203;-41
2021/05/26 08:13:42;;;;;;;5.05;2.70;;;15.40;92.40;;;;;;5094505;28;20249;-43
2021/05/26 08:16:11;;;;;;;2.50;1.80;;;15.50;92.40;;;;;;5094576;28;20730;-40
2021/05/26 08:18:39;;;;;;;2.47;1.38;;;15.60;92.30;;;;;;5094894;28;20319;-39
2021/05/26 08:21:08;;;;;;;1.65;1.15;;;15.60;92.00;;;;;;5094658;28;20297;-39
2021/05/26 08:23:36;;;;;;;3.88;1.45;;;15.50;91.90;;;;;;5094329;28;20233;-40
2021/05/26 08:26:07;;;;;;;3.08;1.73;;;15.50;91.80;;;;;;5094751;28;20302;-40
2021/05/26 08:28:35;;;;;;;3.60;2.28;;;15.40;91.80;;;;;;5094527;28;20250;-38
2021/05/26 08:31:02;;;;;;;2.40;1.73;;;15.30;91.60;;;;;;5094402;28;20297;-38
2021/05/26 08:33:30;;;;;;;2.53;1.58;;;15.20;91.50;;;;;;5094449;28;20226;-38
2021/05/26 08:35:58;;;;;;;2.15;1.50;;;15.20;90.90;;;;;;5094191;28;20631;-39
2021/05/26 08:38:25;;;;;;;2.80;2.08;;;15.10;90.90;;;;;;5094549;28;20408;-39
2021/05/26 08:40:55;;;;;;;5.70;1.85;;;15.10;90.80;;;;;;5094509;28;20209;-39
2021/05/26 08:43:25;;;;;;;9.23;2.88;;;15.10;90.60;;;;;;5094156;28;20654;-38
2021/05/26 08:45:52;;;;;;;4.20;2.85;;;15.20;90.40;;;;;;5094301;28;20751;-39
2021/05/26 08:48:22;;;;;;;5.18;2.80;;;15.40;90.10;;;;;;5094286;28;20294;-38
2021/05/26 08:50:52;;;;;;;2.42;1.40;;;15.40;89.30;;;;;;5094091;28;20238;-39
2021/05/26 08:53:20;;;;;;;10.05;2.60;;;15.40;89.10;;;;;;5094451;28;20230;-38
2021/05/26 08:55:47;;;;;;;5.40;3.45;;;15.40;89.10;;;;;;5094340;28;20199;-39
2021/05/26 08:58:15;;;;;;;7.15;4.72;;;15.50;89.30;;;;;;5094173;28;20207;-39
2021/05/26 09:00:43;;;;;;;2.63;1.80;;;15.60;88.90;;;;;;5094127;28;20585;-38
2021/05/26 09:03:10;;;;;;;4.78;1.40;;;15.60;88.00;;;;;;5093856;28;20318;-39
2021/05/26 09:05:38;;;;;;;2.47;1.48;;;15.50;88.00;;;;;;5093968;28;20210;-41
2021/05/26 09:08:18;;;;;;;3.55;2.05;;;15.50;87.60;;;;;;5093974;28;20203;-40
2021/05/26 09:10:49;;;;;;;3.15;1.50;;;15.50;87.40;;;;;;5094021;28;20602;-39
2021/05/26 09:13:27;;;;;;;2.95;1.60;;;15.60;86.90;;;;;;5093331;28;20202;-40
2021/05/26 09:15:55;;;;;;;4.13;1.55;;;15.60;86.80;;;;;;5092845;28;20285;-41
2021/05/26 09:18:22;;;;;;;2.17;1.50;;;15.70;86.90;;;;;;5093584;28;20241;-42
2021/05/26 09:20:50;;;;;;;2.88;1.33;;;15.70;86.40;;;;;;5093637;28;20260;-39
2021/05/26 09:23:26;;;;;;;2.80;1.30;;;15.70;86.50;;;;;;5093505;28;20237;-39
2021/05/26 09:25:57;;;;;;;2.58;1.38;;;15.70;86.70;;;;;;5093477;28;20628;-43
2021/05/26 09:28:28;;;;;;;2.65;1.23;;;15.70;87.10;;;;;;5093332;28;20626;-40
2021/05/26 09:31:03;;;;;;;2.17;1.40;;;15.80;87.60;;;;;;5093739;28;20293;-41
2021/05/26 09:33:35;;;;;;;8.13;1.80;;;15.80;87.60;;;;;;5093533;28;20621;-40
2021/05/26 09:36:19;;;;;;;5.80;1.80;;;15.80;88.40;;;;;;5093418;28;20242;-40
2021/05/26 09:38:54;;;;;;;4.10;1.65;;;15.80;90.10;;;;;;5093335;28;20257;-42
2021/05/26 09:41:24;;;;;;;4.18;1.20;;;15.60;90.00;;;;;;5093575;28;20210;-39
2021/05/26 09:43:53;;;;;;;4.10;1.52;;;15.60;90.30;;;;;;5093026;28;20257;-40
2021/05/26 09:46:25;;;;;;;4.20;1.58;;;15.50;90.70;;;;;;5093263;28;20290;-41
2021/05/26 09:49:10;;;;;;;1.83;1.30;;;15.50;90.90;;;;;;5093199;28;20210;-41
2021/05/26 09:51:42;;;;;;;2.35;1.40;;;15.60;91.30;;;;;;5093355;28;20225;-39
2021/05/26 09:54:13;;;;;;;8.15;1.55;;;15.70;91.30;;;;;;5092933;28;20297;-40
2021/05/26 09:56:41;;;;;;;4.88;1.60;;;15.70;91.30;;;;;;5093200;28;20242;-40
2021/05/26 09:59:09;;;;;;;2.55;1.67;;;15.60;91.40;;;;;;5093222;28;20206;-41
2021/05/26 10:01:38;;;;;;;3.28;1.58;;;15.60;91.60;;;;;;5092789;28;20210;-39
2021/05/26 10:04:06;;;;;;;4.68;1.95;;;15.50;91.90;;;;;;5092678;28;20226;-39
2021/05/26 10:06:35;;;;;;;2.88;1.45;;;15.40;92.10;;;;;;5092603;28;20290;-40
2021/05/26 10:09:04;;;;;;;2.33;1.60;;;15.30;92.10;;;;;;5092498;28;20218;-42
2021/05/26 10:11:33;;;;;;;6.40;2.00;;;15.30;92.30;;;;;;5092480;28;20210;-40
2021/05/26 10:14:06;;;;;;;2.85;1.20;;;15.30;92.50;;;;;;5092221;28;20203;-40
2021/05/26 10:16:37;;;;;;;4.20;1.30;;;15.30;92.60;;;;;;5092360;28;20379;-39
2021/05/26 10:19:06;;;;;;;4.15;1.42;;;15.20;92.50;;;;;;5092006;28;20712;-40
2021/05/26 10:21:34;;;;;;;2.30;1.50;;;15.20;92.70;;;;;;5092259;28;20206;-41
2021/05/26 10:24:06;;;;;;;1.60;1.45;;;15.10;92.90;;;;;;5091978;28;20696;-39
2021/05/26 10:27:02;;;;;;;2.38;1.45;;;15.10;93.20;;;;;;5091370;28;20695;-39
2021/05/26 10:29:39;;;;;;;1.95;1.45;;;15.00;93.50;;;;;;5091970;28;20211;-40
2021/05/26 10:32:08;;;;;;;5.13;2.30;;;15.00;93.90;;;;;;5091805;28;20245;-40
2021/05/26 10:35:03;;;;;;;4.75;2.03;;;14.90;94.10;;;;;;5091764;28;20206;-42
2021/05/26 10:37:33;;;;;;;2.53;1.83;;;14.90;94.40;;;;;;5082336;28;20203;-40
2021/05/26 10:40:02;;;;;;;2.10;1.55;;;14.90;94.40;;;;;;5091692;28;20287;-39
2021/05/26 10:42:31;;;;;;;3.13;2.17;;;14.80;94.50;;;;;;5091845;28;20264;-40
2021/05/26 10:45:03;;;;;;;3.92;2.00;;;14.90;94.80;;;;;;5091350;28;20390;-39
2021/05/26 10:47:44;;;;;;;6.28;2.00;;;15.00;94.90;;;;;;5091595;28;20210;-40
2021/05/26 10:50:16;;;;;;;3.80;1.60;;;15.10;95.20;;;;;;5091803;28;20249;-42
2021/05/26 10:53:15;;;;;;;1.73;1.55;;;15.40;95.10;;;;;;5091880;28;20257;-40
2021/05/26 10:55:44;;;;;;;2.95;1.50;;;15.60;94.80;;;;;;5091544;28;20211;-40
2021/05/26 10:58:16;;;;;;;1.52;1.40;;;15.80;94.50;;;;;;5091677;28;20241;-42
2021/05/26 11:00:44;;;;;;;2.42;1.83;;;15.90;94.40;;;;;;5091712;28;20241;-41
2021/05/26 11:03:31;;;;;;;6.03;1.70;;;15.90;94.30;;;;;;5091743;28;20520;-41
2021/05/26 11:06:02;;;;;;;7.10;1.70;;;15.90;94.00;;;;;;5091631;28;20203;-41
2021/05/26 11:08:47;;;;;;;3.45;1.92;;;15.80;94.30;;;;;;5091709;28;20238;-40
2021/05/26 11:11:47;;;;;;;4.15;1.67;;;15.80;94.30;;;;;;5091241;28;20202;-40
2021/05/26 11:14:29;;;;;;;2.90;1.48;;;15.50;94.30;;;;;;5091267;28;20602;-43
2021/05/26 11:17:21;;;;;;;3.60;1.75;;;15.40;94.40;;;;;;5091402;28;20653;-40
2021/05/26 11:19:49;;;;;;;2.95;1.60;;;15.40;94.40;;;;;;5091629;28;20234;-40
2021/05/26 11:22:22;;;;;;;4.03;1.30;;;15.30;93.90;;;;;;5091707;28;20211;-40
2021/05/26 11:24:52;;;;;;;3.17;1.63;;;15.10;93.70;;;;;;5091439;28;20314;-40
2021/05/26 11:27:30;;;;;;;3.47;1.67;;;15.00;94.00;;;;;;5091858;28;20237;-40
2021/05/26 11:30:03;;;;;;;4.88;1.63;;;15.00;94.20;;;;;;5091564;28;20272;-40
2021/05/26 11:32:30;;;;;;;3.75;1.52;;;14.90;94.20;;;;;;5091463;28;20629;-42
2021/05/26 11:35:02;;;;;;;4.32;1.65;;;14.90;94.40;;;;;;5091645;28;20256;-43
2021/05/26 11:37:31;;;;;;;4.43;1.50;;;14.90;94.50;;;;;;5091720;28;20343;-40
2021/05/26 11:40:00;;;;;;;5.90;2.33;;;14.80;94.70;;;;;;5094837;28;20206;-40
2021/05/26 11:42:29;;;;;;;4.38;2.33;;;14.80;94.40;;;;;;5095479;28;20233;-41
2021/05/26 11:44:59;;;;;;;7.70;2.22;;;14.80;94.50;;;;;;5095330;28;20229;-40
2021/05/26 11:47:34;;;;;;;5.43;2.42;;;14.80;94.60;;;;;;5094823;28;20271;-41
2021/05/26 11:50:04;;;;;;;5.93;3.35;;;14.80;94.90;;;;;;5095296;28;20190;-41
2021/05/26 11:52:31;;;;;;;2.88;1.92;;;14.80;95.20;;;;;;5094963;28;20614;-40
2021/05/26 11:55:00;;;;;;;4.72;2.53;;;14.80;95.40;;;;;;5095130;28;20214;-39
2021/05/26 11:57:34;;;;;;;5.35;2.38;;;14.80;95.70;;;;;;5094972;28;20584;-39
2021/05/26 12:00:06;;;;;;;2.55;1.98;;;14.70;96.20;;;;;;5094745;28;20378;-39
2021/05/26 12:02:34;;;;;;;5.18;2.17;;;14.60;96.50;;;;;;5094597;28;20302;-39
2021/05/26 12:05:02;;;;;;;3.30;2.05;;;14.50;96.70;;;;;;5094556;28;20226;-39
2021/05/26 12:07:30;;;;;;;4.97;2.10;;;14.40;97.00;;;;;;5094647;28;20297;-39
2021/05/26 12:10:00;;;;;;;3.05;2.20;;;14.30;97.30;;;;;;5094556;28;20230;-42
2021/05/26 12:12:35;;;;;;;3.72;2.20;;;14.20;97.70;;;;;;5094287;28;20214;-42
2021/05/26 12:15:08;;;;;;;5.35;2.55;;;14.10;98.20;;;;;;5094625;28;20207;-39
2021/05/26 12:17:35;;;;;;;3.70;1.90;;;14.10;98.50;;;;;;5094826;28;20210;-40
2021/05/26 12:20:05;;;;;;;3.83;2.25;;;14.00;98.80;;;;;;5094135;28;20322;-39
2021/05/26 12:22:46;;;;;;;6.75;3.30;;;14.10;99.10;;;;;;5094499;28;20272;-39
2021/05/26 12:25:14;;;;;;;6.53;2.33;;;13.90;99.60;;;;;;5094276;28;20234;-40
2021/05/26 12:27:44;;;;;;;4.00;2.05;;;14.00;99.50;;;;;;5094315;28;20207;-40
2021/05/26 12:33:53;;;;;;;5.03;2.53;;;14.00;99.90;;;;;;5094163;28;20185;-38
2021/05/26 12:36:22;;;;;;;3.85;2.60;;;14.00;99.90;;;;;;5094383;28;20630;-39
2021/05/26 12:38:57;;;;;;;5.22;2.35;;;14.00;99.90;;;;;;5094090;28;20669;-39
2021/05/26 12:41:28;;;;;;;5.30;2.55;;;14.00;99.90;;;;;;5094151;28;20210;-41
2021/05/26 12:43:57;;;;;;;4.88;3.13;;;14.00;99.90;;;;;;5094371;28;20606;-39
2021/05/26 12:46:35;;;;;;;5.25;2.63;;;14.00;99.90;;;;;;5094122;28;20609;-40
2021/05/26 12:49:05;;;;;;;7.70;3.33;;;14.10;99.90;;;;;;5094158;28;20313;-39
2021/05/26 12:51:40;;;;;;;4.97;3.05;;;14.10;99.90;;;;;;5093780;28;20533;-39
2021/05/26 12:54:08;;;;;;;6.15;2.55;;;14.10;99.90;;;;;;5093514;28;20238;-39
2021/05/26 12:56:35;;;;;;;6.75;2.85;;;14.10;99.90;;;;;;5093680;28;20647;-40
2021/05/26 12:59:03;;;;;;;3.13;2.53;;;14.10;99.90;;;;;;5093954;28;20238;-40
2021/05/26 13:01:31;;;;;;;4.65;2.75;;;14.00;99.90;;;;;;5093634;28;20298;-38
2021/05/26 13:04:15;;;;;;;5.30;3.05;;;14.10;99.90;;;;;;5093765;28;20631;-39
2021/05/26 13:06:43;;;;;;;9.00;3.78;;;14.10;99.90;;;;;;5093774;28;20276;-41